Time;durP1;ratioP1;P1;durP2;ratioP2;P2;SDS_P1;SDS_P2;PMS_P1;PMS_P2;Temp;Humidity;BMP_temperature;BMP_pressure;BME280_temperature;BME280_humidity;BME280_pressure;Samples;Min_cycle;Max_cycle;Signal;HPM_P1;HPM_P2
2024/04/12 00:00:56;;;;;;;26.58;18.65;;;12.60;99.90;;;;;;5446409;26;20053;-53
2024/04/12 00:03:22;;;;;;;25.13;17.40;;;12.60;99.90;;;;;;5422308;26;20016;-53
2024/04/12 00:05:48;;;;;;;22.65;16.73;;;12.60;99.90;;;;;;5414015;26;20083;-51
2024/04/12 00:08:15;;;;;;;24.67;17.75;;;12.60;99.90;;;;;;5443129;26;20007;-55
2024/04/12 00:10:41;;;;;;;26.35;18.52;;;12.60;99.90;;;;;;5421361;26;20000;-52
2024/04/12 00:13:07;;;;;;;28.70;19.38;;;12.60;99.90;;;;;;5432129;26;20004;-50
2024/04/12 00:15:33;;;;;;;24.55;17.35;;;12.60;99.90;;;;;;5439171;26;20437;-51
2024/04/12 00:18:01;;;;;;;25.85;18.25;;;12.60;99.90;;;;;;5448282;26;20006;-52
2024/04/12 00:20:28;;;;;;;28.92;18.95;;;12.60;99.90;;;;;;5442008;26;20446;-52
2024/04/12 00:22:55;;;;;;;27.05;19.45;;;12.60;99.90;;;;;;5437516;26;20549;-55
2024/04/12 00:25:24;;;;;;;27.50;19.00;;;12.60;99.90;;;;;;5430646;26;20018;-48
2024/04/12 00:27:54;;;;;;;27.73;19.02;;;12.60;99.90;;;;;;5415515;26;19995;-48
2024/04/12 00:30:38;;;;;;;24.42;17.15;;;12.60;99.90;;;;;;5432112;26;20166;-48
2024/04/12 00:33:09;;;;;;;25.98;18.83;;;12.60;99.90;;;;;;5442002;26;20031;-52
2024/04/12 00:35:37;;;;;;;28.10;19.38;;;12.60;99.90;;;;;;5437146;26;20027;-51
2024/04/12 00:38:12;;;;;;;24.33;17.77;;;12.60;99.90;;;;;;5431634;26;20462;-51
2024/04/12 00:40:40;;;;;;;27.35;17.05;;;12.60;99.90;;;;;;5436148;26;20014;-49
2024/04/12 00:43:11;;;;;;;29.20;18.90;;;12.60;99.90;;;;;;5409911;26;20007;-50
2024/04/12 00:45:45;;;;;;;28.20;19.10;;;12.60;99.90;;;;;;5426115;26;20459;-48
2024/04/12 00:48:12;;;;;;;26.25;18.42;;;12.60;99.90;;;;;;5420617;26;20007;-52
2024/04/12 00:50:40;;;;;;;25.90;17.52;;;12.60;99.90;;;;;;5432369;26;20943;-53
2024/04/12 00:53:09;;;;;;;25.30;17.63;;;12.60;99.90;;;;;;5439278;26;20046;-51
2024/04/12 00:55:39;;;;;;;26.50;17.90;;;12.60;99.90;;;;;;5440086;26;19999;-53
2024/04/12 00:58:11;;;;;;;25.58;17.40;;;12.50;99.90;;;;;;5438133;26;19995;-53
2024/04/12 01:00:37;;;;;;;26.58;17.35;;;12.50;99.90;;;;;;5414039;26;20464;-53
2024/04/12 01:03:05;;;;;;;25.40;15.88;;;12.50;99.90;;;;;;5436619;26;20014;-52
2024/04/12 01:05:35;;;;;;;27.15;17.80;;;12.50;99.90;;;;;;5434999;26;20571;-50
2024/04/12 01:08:01;;;;;;;28.83;16.70;;;12.50;99.90;;;;;;5438740;26;20010;-55
2024/04/12 01:10:30;;;;;;;22.15;15.82;;;12.60;99.90;;;;;;5439131;26;19998;-53
2024/04/12 01:13:02;;;;;;;24.75;16.80;;;12.50;99.90;;;;;;5439802;26;20006;-49
2024/04/12 01:15:32;;;;;;;20.95;15.25;;;12.50;99.90;;;;;;5437384;26;20010;-50
2024/04/12 01:18:01;;;;;;;23.27;15.63;;;12.50;99.90;;;;;;5427111;26;20492;-50
2024/04/12 01:20:27;;;;;;;23.23;15.23;;;12.50;99.90;;;;;;5437318;26;19991;-52
2024/04/12 01:22:57;;;;;;;21.17;14.50;;;12.50;99.90;;;;;;5415015;26;19999;-53
2024/04/12 01:25:31;;;;;;;24.33;15.55;;;12.50;99.90;;;;;;5436883;26;20002;-50
2024/04/12 01:27:57;;;;;;;21.05;15.30;;;12.50;99.90;;;;;;5421930;26;20014;-49
2024/04/12 01:30:23;;;;;;;21.80;14.25;;;12.50;99.90;;;;;;5432131;26;20030;-49
2024/04/12 01:32:50;;;;;;;20.15;13.68;;;12.50;99.90;;;;;;5408937;26;19999;-49
2024/04/12 01:35:22;;;;;;;23.67;14.20;;;12.50;99.90;;;;;;5440728;26;19998;-50
2024/04/12 01:37:50;;;;;;;22.45;15.05;;;12.50;99.90;;;;;;5407144;26;19999;-51
2024/04/12 01:40:16;;;;;;;21.02;13.10;;;12.40;99.90;;;;;;5422124;26;20112;-48
2024/04/12 01:42:43;;;;;;;22.27;14.57;;;12.40;99.90;;;;;;5419493;26;20023;-50
2024/04/12 01:45:14;;;;;;;19.27;13.68;;;12.40;99.90;;;;;;5422655;26;19995;-47
2024/04/12 01:47:45;;;;;;;16.98;12.20;;;12.40;99.90;;;;;;5434453;26;19998;-47
2024/04/12 01:50:21;;;;;;;23.17;13.65;;;12.40;99.90;;;;;;5426116;26;20007;-51
2024/04/12 01:52:50;;;;;;;;;;;12.50;99.90;;;;;;5437488;26;20009;-48
2024/04/12 01:55:18;;;;;;;16.77;11.18;;;12.50;99.90;;;;;;5428777;26;19932;-50
2024/04/12 01:57:52;;;;;;;19.63;12.55;;;12.40;99.90;;;;;;5438483;26;19999;-48
2024/04/12 02:00:20;;;;;;;18.58;12.23;;;12.40;99.90;;;;;;5422205;26;20009;-51
2024/04/12 02:02:53;;;;;;;15.75;10.75;;;12.40;99.90;;;;;;5393587;26;20446;-49
2024/04/12 02:05:32;;;;;;;18.35;11.05;;;12.40;99.90;;;;;;5430384;26;19999;-52
2024/04/12 02:07:59;;;;;;;16.40;10.63;;;12.40;99.90;;;;;;5427609;26;19995;-52
2024/04/12 02:10:26;;;;;;;16.50;10.52;;;12.40;99.90;;;;;;5435376;26;20007;-51
2024/04/12 02:12:54;;;;;;;17.90;11.32;;;12.40;99.90;;;;;;5425490;26;19995;-51
2024/04/12 02:15:25;;;;;;;19.70;11.77;;;12.50;99.90;;;;;;5401438;26;20003;-50
2024/04/12 02:17:57;;;;;;;16.35;12.18;;;12.50;99.90;;;;;;5428215;26;20499;-47
2024/04/12 02:20:36;;;;;;;18.70;12.57;;;12.50;99.90;;;;;;5430032;26;20012;-50
2024/04/12 02:23:06;;;;;;;18.13;11.88;;;12.50;99.90;;;;;;5424031;26;20626;-52
2024/04/12 02:25:39;;;;;;;19.50;13.23;;;12.40;99.90;;;;;;5421339;26;19996;-54
2024/04/12 02:28:13;;;;;;;19.88;13.00;;;12.50;99.90;;;;;;5434387;26;19995;-51
2024/04/12 02:30:44;;;;;;;18.40;12.70;;;12.40;99.90;;;;;;5450847;26;19995;-53
2024/04/12 02:33:16;;;;;;;17.33;11.63;;;12.40;99.90;;;;;;5425652;26;19991;-52
2024/04/12 02:35:41;;;;;;;16.58;11.32;;;12.40;99.90;;;;;;5444148;26;20010;-53
2024/04/12 02:38:15;;;;;;;21.60;12.82;;;12.40;99.90;;;;;;5410091;26;19996;-56
2024/04/12 02:40:44;;;;;;;17.98;13.27;;;12.40;99.90;;;;;;5439829;26;20331;-53
2024/04/12 02:43:18;;;;;;;20.33;13.57;;;12.40;99.90;;;;;;5440437;26;20002;-54
2024/04/12 02:45:55;;;;;;;22.45;14.35;;;12.40;99.90;;;;;;5448639;26;20012;-51
2024/04/12 02:48:21;;;;;;;24.40;15.50;;;12.40;99.90;;;;;;5438621;26;20078;-52
2024/04/12 02:50:56;;;;;;;21.13;14.73;;;12.40;99.90;;;;;;5427767;26;20003;-53
2024/04/12 02:53:26;;;;;;;23.42;13.55;;;12.40;99.90;;;;;;5420593;26;20027;-49
2024/04/12 02:56:09;;;;;;;27.67;16.05;;;12.40;99.90;;;;;;5424341;26;20463;-50
2024/04/12 02:58:45;;;;;;;25.00;15.80;;;12.40;99.90;;;;;;5425959;26;20474;-52
2024/04/12 03:01:18;;;;;;;22.02;14.85;;;12.40;99.90;;;;;;5446514;26;20003;-50
2024/04/12 03:03:45;;;;;;;24.00;15.57;;;12.40;99.90;;;;;;5446176;26;19995;-50
2024/04/12 03:06:20;;;;;;;23.20;15.48;;;12.40;99.90;;;;;;5432309;26;20017;-50
2024/04/12 03:08:49;;;;;;;25.42;15.50;;;12.40;99.90;;;;;;5452282;26;19998;-51
2024/04/12 03:11:21;;;;;;;24.42;15.15;;;12.40;99.90;;;;;;5424469;26;19998;-51
2024/04/12 03:13:54;;;;;;;24.10;16.40;;;12.40;99.90;;;;;;5441994;26;20351;-48
2024/04/12 03:16:20;;;;;;;26.30;17.48;;;12.30;99.90;;;;;;5445200;26;20017;-51
2024/04/12 03:18:51;;;;;;;25.35;17.05;;;12.30;99.90;;;;;;5442703;26;20007;-50
2024/04/12 03:21:21;;;;;;;23.92;15.55;;;12.40;99.90;;;;;;5428146;26;20509;-48
2024/04/12 03:23:47;;;;;;;22.50;15.98;;;12.30;99.90;;;;;;5439763;26;20075;-48
2024/04/12 03:26:15;;;;;;;24.40;16.15;;;12.30;99.90;;;;;;5438622;26;20007;-56
2024/04/12 03:28:41;;;;;;;25.83;16.35;;;12.30;99.90;;;;;;5446767;26;20002;-52
2024/04/12 03:31:08;;;;;;;25.38;17.15;;;12.30;99.90;;;;;;5431993;26;20053;-51
2024/04/12 03:33:42;;;;;;;27.65;17.30;;;12.40;99.90;;;;;;5446347;26;20139;-48
2024/04/12 03:36:26;;;;;;;31.95;16.77;;;12.40;99.90;;;;;;5444146;26;20421;-51
2024/04/12 03:41:50;;;;;;;30.25;16.50;;;12.40;99.90;;;;;;5437112;26;19994;-51
2024/04/12 03:44:18;;;;;;;25.95;16.20;;;12.40;99.90;;;;;;5441829;26;20052;-50
2024/04/12 03:46:50;;;;;;;29.33;17.33;;;12.40;99.90;;;;;;5442789;26;20372;-55
2024/04/12 03:49:20;;;;;;;24.63;14.98;;;12.40;99.90;;;;;;5444254;26;19995;-56
2024/04/12 03:51:50;;;;;;;25.55;15.70;;;12.30;99.90;;;;;;5445258;26;20017;-47
2024/04/12 03:54:21;;;;;;;23.92;15.07;;;12.30;99.90;;;;;;5431906;26;20455;-54
2024/04/12 03:56:51;;;;;;;28.27;16.58;;;12.30;99.90;;;;;;5443433;26;20656;-49
2024/04/12 03:59:17;;;;;;;23.10;16.30;;;12.40;99.90;;;;;;5440872;26;20684;-49
2024/04/12 04:01:46;;;;;;;22.35;14.40;;;12.40;99.90;;;;;;5406161;26;20010;-51
2024/04/12 04:04:18;;;;;;;21.38;14.88;;;12.30;99.90;;;;;;5445027;26;19999;-51
2024/04/12 04:06:54;;;;;;;24.13;15.38;;;12.30;99.90;;;;;;5428613;26;19994;-51
2024/04/12 04:09:20;;;;;;;19.10;13.27;;;12.30;99.90;;;;;;5426945;26;20003;-52
2024/04/12 04:11:47;;;;;;;20.40;14.48;;;12.30;99.90;;;;;;5443447;26;20013;-53
2024/04/12 04:14:13;;;;;;;19.48;13.43;;;12.30;99.90;;;;;;5446102;26;19994;-50
2024/04/12 04:16:42;;;;;;;20.52;13.80;;;12.30;99.90;;;;;;5446249;26;20104;-53
2024/04/12 04:19:12;;;;;;;20.48;13.40;;;12.40;99.90;;;;;;5444456;26;20010;-55
2024/04/12 04:21:41;;;;;;;24.10;14.77;;;12.40;99.90;;;;;;5394075;26;20031;-51
2024/04/12 04:24:11;;;;;;;22.98;14.57;;;12.30;99.90;;;;;;5435446;26;20009;-50
2024/04/12 04:26:37;;;;;;;20.50;13.38;;;12.30;99.90;;;;;;5430269;26;19995;-51
2024/04/12 04:29:09;;;;;;;24.15;13.25;;;12.30;99.90;;;;;;5423983;26;20010;-51
2024/04/12 04:31:47;;;;;;;18.77;12.52;;;12.30;99.90;;;;;;5440550;26;20022;-52
2024/04/12 04:34:17;;;;;;;21.35;14.07;;;12.40;99.90;;;;;;5433360;26;20036;-49
2024/04/12 04:36:50;;;;;;;22.98;14.05;;;12.40;99.90;;;;;;5396441;26;19992;-50
2024/04/12 04:39:16;;;;;;;19.52;13.13;;;12.30;99.90;;;;;;5416907;26;20014;-50
2024/04/12 04:41:46;;;;;;;20.20;12.30;;;12.30;99.90;;;;;;5408164;26;20008;-51
2024/04/12 04:44:14;;;;;;;18.23;12.25;;;12.30;99.90;;;;;;5399597;26;20031;-51
2024/04/12 04:46:46;;;;;;;20.42;14.07;;;12.30;99.90;;;;;;5437058;26;20554;-50
2024/04/12 04:49:17;;;;;;;18.52;13.07;;;12.30;99.90;;;;;;5420827;26;20000;-53
2024/04/12 04:51:45;;;;;;;24.50;14.70;;;12.30;99.90;;;;;;5443826;26;20099;-53
2024/04/12 04:54:11;;;;;;;18.70;12.35;;;12.30;99.90;;;;;;5447536;26;20034;-55
2024/04/12 04:56:41;;;;;;;21.38;13.77;;;12.40;99.90;;;;;;5429366;26;19999;-53
2024/04/12 04:59:16;;;;;;;19.02;13.95;;;12.40;99.90;;;;;;5438558;26;20178;-54
2024/04/12 05:01:42;;;;;;;17.40;11.57;;;12.30;99.90;;;;;;5435994;26;20519;-50
2024/04/12 05:04:15;;;;;;;20.83;13.93;;;12.40;99.90;;;;;;5435528;26;20386;-50
2024/04/12 05:06:41;;;;;;;23.63;14.25;;;12.30;99.90;;;;;;5426686;26;20064;-52
2024/04/12 05:09:08;;;;;;;22.00;13.07;;;12.40;99.90;;;;;;5421853;26;20212;-51
2024/04/12 05:11:34;;;;;;;20.58;13.63;;;12.40;99.90;;;;;;5424411;26;19999;-49
2024/04/12 05:14:13;;;;;;;20.25;12.93;;;12.40;99.90;;;;;;5440610;26;20785;-49
2024/04/12 05:16:45;;;;;;;18.85;13.25;;;12.40;99.90;;;;;;5417242;26;20008;-54
2024/04/12 05:19:12;;;;;;;19.25;12.75;;;12.40;99.90;;;;;;5445612;26;20479;-53
2024/04/12 05:21:40;;;;;;;20.52;13.07;;;12.40;99.90;;;;;;5449952;26;20470;-50
2024/04/12 05:24:09;;;;;;;22.65;13.85;;;12.40;99.90;;;;;;5443943;26;20118;-50
2024/04/12 05:26:45;;;;;;;20.85;13.10;;;12.40;99.90;;;;;;5445325;26;19994;-51
2024/04/12 05:29:11;;;;;;;21.75;14.80;;;12.50;99.90;;;;;;5444376;26;20003;-50
2024/04/12 05:31:44;;;;;;;23.48;13.65;;;12.50;99.90;;;;;;5415869;26;20005;-53
2024/04/12 05:34:12;;;;;;;22.92;14.75;;;12.50;99.90;;;;;;5454050;26;20009;-50
2024/04/12 05:36:41;;;;;;;22.88;14.65;;;12.50;99.90;;;;;;5449262;26;20044;-52
2024/04/12 05:39:11;;;;;;;25.42;15.65;;;12.50;99.90;;;;;;5433073;26;20119;-50
2024/04/12 05:41:44;;;;;;;24.10;15.45;;;12.50;99.90;;;;;;5442737;26;20007;-51
2024/04/12 05:44:10;;;;;;;26.75;17.27;;;12.50;99.90;;;;;;5423695;26;20010;-51
2024/04/12 05:46:39;;;;;;;22.63;14.70;;;12.50;99.90;;;;;;5451226;26;20013;-50
2024/04/12 05:49:11;;;;;;;22.48;14.82;;;12.60;99.90;;;;;;5443202;26;20006;-53
2024/04/12 05:51:39;;;;;;;25.08;16.45;;;12.50;99.90;;;;;;5361317;21;20680;-54
2024/04/12 05:54:15;;;;;;;26.30;15.73;;;12.60;99.90;;;;;;5370260;26;20021;-53
2024/04/12 05:56:44;;;;;;;28.83;17.80;;;12.60;99.90;;;;;;5370154;26;20359;-49
2024/04/12 05:59:13;;;;;;;31.35;17.35;;;12.60;99.90;;;;;;5375867;26;20580;-51
2024/04/12 06:01:43;;;;;;;29.60;18.60;;;12.60;99.90;;;;;;5399632;26;22298;-52
2024/04/12 06:04:10;;;;;;;28.70;17.70;;;12.60;99.90;;;;;;5406383;26;19996;-53
2024/04/12 06:06:42;;;;;;;24.67;17.10;;;12.60;99.90;;;;;;5406948;26;20014;-54
2024/04/12 06:09:15;;;;;;;24.80;17.60;;;12.60;99.90;;;;;;5408374;26;20006;-54
2024/04/12 06:11:41;;;;;;;29.23;17.40;;;12.70;99.90;;;;;;5404117;26;20105;-50
2024/04/12 06:14:09;;;;;;;26.88;17.80;;;12.70;99.90;;;;;;5407157;26;19996;-48
2024/04/12 06:16:35;;;;;;;26.73;17.73;;;12.70;99.90;;;;;;5411106;26;20000;-48
2024/04/12 06:19:02;;;;;;;27.50;18.00;;;12.70;99.90;;;;;;5408587;26;19995;-53
2024/04/12 06:21:30;;;;;;;27.15;18.20;;;12.70;99.90;;;;;;5401424;26;19996;-49
2024/04/12 06:23:56;;;;;;;25.08;17.40;;;12.70;99.90;;;;;;5406614;26;20011;-49
2024/04/12 06:26:22;;;;;;;27.20;17.55;;;12.70;99.90;;;;;;5408532;26;20368;-52
2024/04/12 06:28:48;;;;;;;24.48;17.27;;;12.70;99.90;;;;;;5405700;26;19996;-51
2024/04/12 06:31:19;;;;;;;25.60;16.60;;;12.70;99.90;;;;;;5407267;26;20000;-51
2024/04/12 06:33:51;;;;;;;26.80;17.52;;;12.80;99.90;;;;;;5405539;26;20014;-50
2024/04/12 06:36:17;;;;;;;29.23;17.90;;;12.80;99.90;;;;;;5400322;26;20011;-49
2024/04/12 06:38:43;;;;;;;27.42;18.08;;;12.80;99.90;;;;;;5406105;26;19999;-54
2024/04/12 06:41:14;;;;;;;25.33;17.00;;;12.80;99.90;;;;;;5406553;26;20437;-51
2024/04/12 06:43:42;;;;;;;27.45;17.58;;;12.80;99.90;;;;;;5404595;26;20015;-51
2024/04/12 06:46:14;;;;;;;24.73;16.10;;;12.80;99.90;;;;;;5404509;26;20529;-48
2024/04/12 06:48:41;;;;;;;26.17;16.08;;;12.80;99.90;;;;;;5403845;26;20011;-54
2024/04/12 06:51:11;;;;;;;24.35;16.20;;;12.80;99.90;;;;;;5404974;26;20013;-56
2024/04/12 06:53:44;;;;;;;28.27;17.02;;;12.80;99.90;;;;;;5405248;26;19995;-52
2024/04/12 06:56:15;;;;;;;27.65;16.75;;;12.90;99.90;;;;;;5405520;26;19991;-51
2024/04/12 06:58:43;;;;;;;24.13;15.25;;;12.90;99.90;;;;;;5407244;26;20398;-52
2024/04/12 07:01:10;;;;;;;24.33;17.33;;;12.90;99.90;;;;;;5402883;26;20713;-52
2024/04/12 07:03:36;;;;;;;27.40;16.42;;;12.90;99.90;;;;;;5406027;26;20011;-55
2024/04/12 07:06:03;;;;;;;24.02;15.20;;;12.90;99.90;;;;;;5403906;26;20456;-50
2024/04/12 07:08:29;;;;;;;23.33;15.48;;;12.90;99.90;;;;;;5403395;26;20004;-51
2024/04/12 07:10:56;;;;;;;24.77;15.07;;;13.00;99.90;;;;;;5406372;26;20547;-51
2024/04/12 07:13:25;;;;;;;27.50;15.38;;;13.00;99.90;;;;;;5404835;26;20027;-52
2024/04/12 07:15:51;;;;;;;24.58;15.10;;;13.10;99.90;;;;;;5410388;26;20514;-53
2024/04/12 07:18:17;;;;;;;24.10;16.20;;;13.10;99.90;;;;;;5404592;26;20074;-52
2024/04/12 07:20:48;;;;;;;25.17;15.23;;;13.10;99.90;;;;;;5408936;26;20011;-52
2024/04/12 07:23:16;;;;;;;23.23;14.75;;;13.20;99.90;;;;;;5405983;26;20006;-50
2024/04/12 07:25:45;;;;;;;28.30;14.90;;;13.20;99.90;;;;;;5411372;26;20018;-47
2024/04/12 07:28:14;;;;;;;22.90;14.50;;;13.20;99.90;;;;;;5403642;26;20004;-50
2024/04/12 07:30:44;;;;;;;20.55;15.00;;;13.20;99.90;;;;;;5407772;26;20000;-51
2024/04/12 07:33:12;;;;;;;22.08;14.35;;;13.30;99.90;;;;;;5407544;26;20011;-53
2024/04/12 07:35:48;;;;;;;23.25;15.25;;;13.30;99.90;;;;;;5403438;26;20451;-50
2024/04/12 07:38:14;;;;;;;23.98;15.50;;;13.40;99.90;;;;;;5400410;26;19996;-52
2024/04/12 07:40:42;;;;;;;25.77;15.23;;;13.50;99.90;;;;;;5404050;26;20031;-61
2024/04/12 07:43:12;;;;;;;21.60;14.70;;;13.60;99.90;;;;;;5407857;26;20059;-52
2024/04/12 07:45:38;;;;;;;24.67;14.25;;;13.60;99.90;;;;;;5404527;26;19996;-47
2024/04/12 07:48:11;;;;;;;25.48;15.55;;;13.80;99.90;;;;;;5404613;26;20076;-51
2024/04/12 07:50:41;;;;;;;22.20;14.82;;;13.80;99.90;;;;;;5410799;26;20332;-50
2024/04/12 07:53:10;;;;;;;21.73;13.40;;;13.80;99.90;;;;;;5403991;26;20008;-53
2024/04/12 07:55:44;;;;;;;19.05;13.73;;;13.90;99.90;;;;;;5407763;26;20552;-51
2024/04/12 07:58:12;;;;;;;19.23;12.43;;;14.00;99.90;;;;;;5403864;26;20058;-47
2024/04/12 08:00:47;;;;;;;19.92;12.68;;;14.00;99.90;;;;;;5404135;26;20858;-46
2024/04/12 08:03:16;;;;;;;16.17;12.90;;;14.00;99.90;;;;;;5405683;26;19999;-48
2024/04/12 08:05:59;;;;;;;16.65;12.13;;;14.00;99.90;;;;;;5405904;26;20003;-55
2024/04/12 08:09:21;;;;;;;16.35;11.82;;;14.00;99.90;;;;;;5408281;26;20346;-52
2024/04/12 08:11:35;;;;;;;17.33;11.45;;;13.90;99.90;;;;;;5382633;26;20570;-52
2024/04/12 08:14:05;;;;;;;17.17;11.48;;;13.90;99.90;;;;;;5402701;26;20007;-53
2024/04/12 08:16:46;;;;;;;16.70;11.82;;;13.90;99.90;;;;;;5404184;26;20023;-48
2024/04/12 08:19:13;;;;;;;17.63;12.20;;;14.00;99.90;;;;;;5395966;26;20004;-51
2024/04/12 08:21:43;;;;;;;18.55;12.52;;;14.10;99.90;;;;;;5406222;26;20053;-53
2024/04/12 08:24:10;;;;;;;15.82;11.65;;;14.10;99.90;;;;;;5404747;26;20000;-50
2024/04/12 08:26:45;;;;;;;15.77;10.82;;;14.10;99.90;;;;;;5399248;26;20044;-49
2024/04/12 08:29:23;;;;;;;15.25;10.95;;;14.20;99.90;;;;;;5404233;26;20008;-49
2024/04/12 08:31:49;;;;;;;14.60;10.70;;;14.10;99.90;;;;;;5376163;26;19996;-53
2024/04/12 08:34:15;;;;;;;20.45;11.93;;;14.20;99.90;;;;;;5409508;26;19999;-52
2024/04/12 08:36:45;;;;;;;14.15;10.32;;;14.20;99.90;;;;;;5400710;26;20065;-51
2024/04/12 08:39:25;;;;;;;15.45;11.07;;;14.30;99.90;;;;;;5401133;26;20096;-50
2024/04/12 08:41:58;;;;;;;13.98;10.27;;;14.30;99.90;;;;;;5400397;26;20119;-54
2024/04/12 08:44:24;;;;;;;13.10;10.73;;;14.20;99.90;;;;;;5398522;26;20082;-51
2024/04/12 08:46:50;;;;;;;12.73;9.05;;;14.10;99.90;;;;;;5403224;26;20012;-52
2024/04/12 08:49:17;;;;;;;11.95;9.45;;;14.20;99.90;;;;;;5396344;26;20026;-47
2024/04/12 08:51:46;;;;;;;13.80;9.32;;;14.10;99.90;;;;;;5408762;26;19995;-49
2024/04/12 08:54:15;;;;;;;12.98;9.25;;;14.10;99.90;;;;;;5406778;26;20339;-50
2024/04/12 08:56:45;;;;;;;11.18;8.82;;;14.00;99.90;;;;;;5412980;26;20000;-55
2024/04/12 08:59:17;;;;;;;13.70;9.80;;;14.10;99.90;;;;;;5412481;26;20039;-55
2024/04/12 09:01:45;;;;;;;12.45;9.77;;;14.10;99.90;;;;;;5407631;26;20679;-51
2024/04/12 09:04:15;;;;;;;12.02;9.25;;;14.00;99.90;;;;;;5405326;26;20007;-50
2024/04/12 09:06:41;;;;;;;12.52;9.05;;;14.00;99.90;;;;;;5408252;26;20476;-51
2024/04/12 09:09:13;;;;;;;13.07;9.18;;;14.00;99.90;;;;;;5403101;26;20398;-50
2024/04/12 09:11:39;;;;;;;12.73;9.13;;;14.00;99.90;;;;;;5403805;26;20000;-46
2024/04/12 09:14:19;;;;;;;13.30;9.50;;;14.00;99.90;;;;;;5407291;26;20010;-50
2024/04/12 09:16:48;;;;;;;12.77;8.88;;;14.10;99.90;;;;;;5412758;26;19996;-52
2024/04/12 09:19:18;;;;;;;14.18;9.27;;;14.10;99.90;;;;;;5406376;26;20022;-50
2024/04/12 09:21:58;;;;;;;10.25;7.50;;;14.10;99.90;;;;;;5408729;26;20073;-52
2024/04/12 09:24:31;;;;;;;10.98;8.57;;;14.10;99.90;;;;;;5401816;26;20040;-48
2024/04/12 09:27:00;;;;;;;10.70;7.55;;;14.20;99.90;;;;;;5409521;26;19999;-50
2024/04/12 09:29:28;;;;;;;10.80;8.45;;;14.20;99.90;;;;;;5401693;26;20007;-50
2024/04/12 09:34:55;;;;;;;10.48;7.10;;;14.30;99.90;;;;;;5403459;26;20076;-52
2024/04/12 09:42:44;;;;;;;12.30;7.90;;;14.30;99.90;;;;;;5407616;26;20077;-51
2024/04/12 09:45:16;;;;;;;9.45;7.57;;;14.30;99.90;;;;;;5405169;26;20285;-54
2024/04/12 10:38:02;;;;;;;10.00;6.70;;;14.60;99.90;;;;;;5406382;26;20089;-51
2024/04/12 10:40:30;;;;;;;9.50;7.07;;;14.50;99.90;;;;;;5408682;26;20003;-51
2024/04/12 10:42:57;;;;;;;9.38;7.03;;;14.50;99.90;;;;;;5401114;26;20444;-51
2024/04/12 10:45:25;;;;;;;9.30;6.90;;;14.50;99.90;;;;;;5403613;26;19996;-51
2024/04/12 10:47:56;;;;;;;10.15;6.57;;;14.50;99.90;;;;;;5400582;26;19996;-53
2024/04/12 10:50:23;;;;;;;9.65;7.75;;;14.50;99.90;;;;;;5399461;26;20019;-49
2024/04/12 10:52:49;;;;;;;11.25;7.25;;;14.40;99.90;;;;;;5401820;26;20113;-54
2024/04/12 10:55:19;;;;;;;9.23;7.28;;;14.40;99.90;;;;;;5402901;26;19991;-51
2024/04/12 10:57:48;;;;;;;9.95;7.45;;;14.40;99.90;;;;;;5406205;26;19999;-50
2024/04/12 11:00:27;;;;;;;12.70;8.80;;;14.40;99.90;;;;;;5402930;26;19999;-53
2024/04/12 11:02:59;;;;;;;11.93;8.57;;;14.50;99.90;;;;;;5403605;26;19995;-52
2024/04/12 11:05:38;;;;;;;9.65;8.00;;;14.50;99.90;;;;;;5406639;26;20074;-51
2024/04/12 11:08:08;;;;;;;11.10;8.45;;;14.50;99.90;;;;;;5405836;26;19999;-51
2024/04/12 11:10:40;;;;;;;11.10;7.45;;;14.60;99.90;;;;;;5403880;26;19999;-51
2024/04/12 11:13:07;;;;;;;10.35;7.97;;;14.50;99.90;;;;;;5377294;26;20051;-53
2024/04/12 11:31:59;;;;;;;10.75;8.80;;;14.80;99.90;;;;;;5402890;26;20536;-50
2024/04/12 11:34:30;;;;;;;9.77;8.65;;;15.00;99.90;;;;;;5409302;26;21174;-50
2024/04/12 11:36:58;;;;;;;10.77;8.45;;;15.10;99.90;;;;;;5399805;26;20007;-46
2024/04/12 11:39:27;;;;;;;10.05;7.82;;;15.30;99.90;;;;;;5402758;26;20753;-50
2024/04/12 11:41:56;;;;;;;10.30;7.95;;;15.50;99.90;;;;;;5406282;26;20204;-50
2024/04/12 11:44:22;;;;;;;9.65;7.88;;;15.70;99.90;;;;;;5405576;26;20010;-49
2024/04/12 11:46:49;;;;;;;9.00;7.13;;;15.80;99.90;;;;;;5401693;26;20778;-50
2024/04/12 11:49:25;;;;;;;10.85;8.68;;;16.00;99.90;;;;;;5400278;26;20666;-51
2024/04/12 11:51:55;;;;;;;8.70;7.78;;;16.10;99.90;;;;;;5387769;21;20019;-86
2024/04/12 11:54:29;;;;;;;10.45;8.13;;;16.10;99.90;;;;;;5357484;26;20373;-85
2024/04/12 11:56:57;;;;;;;9.20;7.18;;;16.00;99.90;;;;;;5365596;26;19996;-84
2024/04/12 11:59:27;;;;;;;9.93;7.72;;;16.10;99.90;;;;;;5358563;26;20372;-84
2024/04/12 12:01:59;;;;;;;8.50;6.50;;;16.10;99.90;;;;;;5381877;26;20000;-84
2024/04/12 12:04:28;;;;;;;8.38;7.32;;;16.10;99.90;;;;;;5393921;26;20000;-84
2024/04/12 12:07:04;;;;;;;12.10;8.00;;;16.10;99.90;;;;;;5381197;26;20012;-85
2024/04/12 12:09:36;;;;;;;8.63;7.05;;;16.10;99.90;;;;;;5383486;26;20000;-85
2024/04/12 12:12:03;;;;;;;9.27;7.22;;;16.20;99.90;;;;;;5361830;26;20026;-84
2024/04/12 12:14:29;;;;;;;9.27;8.00;;;16.20;99.90;;;;;;5361901;26;19999;-84
2024/04/12 12:16:57;;;;;;;8.20;7.15;;;16.20;99.90;;;;;;5386696;26;19997;-86
2024/04/12 12:19:23;;;;;;;8.55;6.95;;;16.20;99.90;;;;;;5381931;26;20695;-84
2024/04/12 12:21:51;;;;;;;8.65;7.65;;;16.30;99.90;;;;;;5353300;26;20041;-85
2024/04/12 12:24:17;;;;;;;10.98;6.90;;;16.30;99.90;;;;;;5351923;26;20007;-84
2024/04/12 12:26:44;;;;;;;9.60;7.55;;;16.40;99.90;;;;;;5401898;26;19992;-86
2024/04/12 12:29:12;;;;;;;9.65;7.85;;;16.40;99.90;;;;;;5362918;26;20073;-86
2024/04/12 12:31:38;;;;;;;8.70;7.10;;;16.40;99.90;;;;;;5362552;26;20082;-85
2024/04/12 12:34:05;;;;;;;8.88;6.95;;;16.50;99.90;;;;;;5389085;26;20000;-86
2024/04/12 12:36:30;;;;;;;7.93;7.15;;;16.60;99.90;;;;;;5363972;26;20004;-86
2024/04/12 12:38:58;;;;;;;13.50;7.63;;;16.60;99.90;;;;;;5364381;26;19991;-86
2024/04/12 12:41:24;;;;;;;10.15;7.75;;;16.70;99.90;;;;;;5385508;26;20000;-85
2024/04/12 12:43:50;;;;;;;10.52;7.20;;;16.80;99.90;;;;;;5368221;26;20071;-85
2024/04/12 12:46:24;;;;;;;11.32;8.23;;;16.90;99.90;;;;;;5362767;26;20349;-86
2024/04/12 12:48:52;;;;;;;10.48;7.97;;;17.00;99.90;;;;;;5359305;26;20006;-87
2024/04/12 12:51:24;;;;;;;10.77;7.55;;;17.10;99.90;;;;;;5394262;26;20000;-86
2024/04/12 12:53:53;;;;;;;9.43;6.97;;;17.20;99.90;;;;;;5391410;26;20000;-85
2024/04/12 12:56:19;;;;;;;8.40;7.05;;;17.30;99.90;;;;;;5394440;26;20000;-85
2024/04/12 12:58:47;;;;;;;7.43;6.72;;;17.30;99.90;;;;;;5392008;26;20052;-86
2024/04/12 13:01:15;;;;;;;8.32;6.95;;;17.40;99.90;;;;;;5395854;26;20004;-86
2024/04/12 13:03:43;;;;;;;8.52;6.40;;;17.50;99.90;;;;;;5372524;26;20018;-86
2024/04/12 13:06:14;;;;;;;7.85;6.68;;;17.50;99.90;;;;;;5403204;26;20008;-85
2024/04/12 13:08:46;;;;;;;8.93;6.78;;;17.50;99.90;;;;;;5396099;26;20036;-87
2024/04/12 13:11:15;;;;;;;10.57;6.57;;;17.60;99.90;;;;;;5384347;26;20015;-86
2024/04/12 13:13:40;;;;;;;8.30;6.38;;;17.70;99.90;;;;;;5394325;26;20013;-87
2024/04/12 13:16:11;;;;;;;8.27;6.07;;;17.70;99.90;;;;;;5365739;26;20000;-84
2024/04/12 13:18:43;;;;;;;7.70;5.78;;;17.80;99.90;;;;;;5359304;26;20041;-84
2024/04/12 13:21:12;;;;;;;7.60;5.63;;;17.80;99.90;;;;;;5364829;26;19995;-85
2024/04/12 13:23:42;;;;;;;10.13;5.38;;;17.80;99.90;;;;;;5390713;26;20083;-83
2024/04/12 13:26:08;;;;;;;8.57;5.90;;;17.90;99.90;;;;;;5388108;26;19996;-86
2024/04/12 13:28:34;;;;;;;6.35;5.65;;;17.90;99.90;;;;;;5356501;26;20435;-86
2024/04/12 13:31:00;;;;;;;9.02;7.05;;;17.90;99.90;;;;;;5392961;26;20387;-86
2024/04/12 13:33:26;;;;;;;6.85;5.70;;;17.90;99.90;;;;;;5395612;26;20012;-84
2024/04/12 13:35:52;;;;;;;7.95;5.90;;;17.90;99.90;;;;;;5380640;26;20005;-84
2024/04/12 13:38:18;;;;;;;8.32;5.85;;;17.90;99.90;;;;;;5360393;26;19999;-85
2024/04/12 13:40:49;;;;;;;11.18;5.80;;;17.90;99.90;;;;;;5358023;26;19996;-83
2024/04/12 13:43:16;;;;;;;5.43;4.55;;;18.00;99.90;;;;;;5383966;26;20008;-84
2024/04/12 13:51:20;;;;;;;8.10;5.43;;;18.60;99.90;;;;;;5393381;26;20014;-81
2024/04/12 13:53:50;;;;;;;7.90;5.18;;;18.80;99.90;;;;;;5394375;26;20314;-83
2024/04/12 13:56:20;;;;;;;9.38;6.60;;;18.80;99.90;;;;;;5364224;26;20003;-83
2024/04/12 13:59:01;;;;;;;7.40;5.82;;;18.60;99.90;;;;;;5362456;26;20041;-83
2024/04/12 14:01:29;;;;;;;6.63;5.57;;;18.50;99.90;;;;;;5353308;26;20040;-85
2024/04/12 14:03:58;;;;;;;7.47;5.63;;;18.60;99.90;;;;;;5387312;26;20000;-86
2024/04/12 14:06:25;;;;;;;6.90;5.07;;;18.50;99.90;;;;;;5381884;26;19996;-84
2024/04/12 14:08:52;;;;;;;7.07;4.88;;;18.50;99.90;;;;;;5357986;26;20122;-84